Time;durP1;ratioP1;P1;durP2;ratioP2;P2;SDS_P1;SDS_P2;PMS_P1;PMS_P2;Temp;Humidity;BMP_temperature;BMP_pressure;BME280_temperature;BME280_humidity;BME280_pressure;Samples;Min_cycle;Max_cycle;Signal;HPM_P1;HPM_P2
2022/01/06 00:08:25;;;;;;;7.10;4.30;;;;;;;0.71;84.52;97961.54;447426;1271;141702;-61
2022/01/06 00:23:01;;;;;;;5.50;5.00;;;;;;;0.65;84.70;97953.22;446665;1270;141361;-62
2022/01/06 00:29:01;;;;;;;6.70;3.70;;;;;;;0.64;84.75;97952.08;447369;1271;141474;-61
2022/01/06 00:39:07;;;;;;;8.70;5.20;;;;;;;0.71;84.73;97956.55;447410;1270;141399;-61
2022/01/06 00:49:13;;;;;;;5.20;4.50;;;;;;;0.66;84.71;97955.19;446595;1271;142368;-63
2022/01/06 00:59:19;;;;;;;6.70;3.90;;;;;;;0.63;85.09;97963.30;447313;1270;141752;-62
2022/01/06 01:09:24;;;;;;;6.60;3.80;;;;;;;0.69;85.39;97976.95;445264;1271;141295;-63
2022/01/06 01:19:32;;;;;;;4.90;3.30;;;;;;;0.72;85.32;97982.81;445017;1270;141043;-63
2022/01/06 01:29:45;;;;;;;5.00;3.20;;;;;;;0.77;85.50;97988.25;447466;1270;141300;-66
2022/01/06 01:39:51;;;;;;;6.40;4.50;;;;;;;0.86;85.59;97992.48;446609;1271;141736;-62
2022/01/06 01:50:10;;;;;;;5.30;3.50;;;;;;;0.94;85.63;98000.02;441352;1270;143740;-61
2022/01/06 02:00:18;;;;;;;6.00;3.80;;;;;;;0.96;85.39;98008.35;435654;1271;141218;-62
2022/01/06 02:10:24;;;;;;;3.50;2.60;;;;;;;1.02;85.51;98011.67;442020;1271;144134;-62
2022/01/06 02:20:30;;;;;;;6.10;2.70;;;;;;;1.10;85.40;98008.67;447309;1271;142163;-64
2022/01/06 02:30:37;;;;;;;4.50;2.90;;;;;;;1.14;85.27;98004.19;446658;1270;141389;-64
2022/01/06 02:40:43;;;;;;;7.40;3.20;;;;;;;1.19;85.18;97999.10;447338;1271;141855;-64
2022/01/06 02:50:51;;;;;;;5.70;3.00;;;;;;;1.23;85.08;98005.62;447358;1270;140975;-65
2022/01/06 03:00:57;;;;;;;5.50;3.00;;;;;;;1.14;85.38;98023.67;446515;1270;140683;-64
2022/01/06 03:11:03;;;;;;;3.70;2.80;;;;;;;1.06;85.65;98027.48;447362;1271;141098;-66
2022/01/06 03:21:09;;;;;;;3.10;2.60;;;;;;;1.03;86.17;98044.71;431614;1272;140794;-64
2022/01/06 03:31:14;;;;;;;4.70;2.60;;;;;;;1.08;86.23;98055.35;447113;1270;151814;-65
2022/01/06 03:41:21;;;;;;;4.10;3.10;;;;;;;1.13;86.22;98063.04;432321;1271;141561;-64
2022/01/06 03:51:27;;;;;;;5.00;3.00;;;;;;;1.17;86.24;98063.33;428747;1271;141553;-64
2022/01/06 04:01:33;;;;;;;3.30;2.30;;;;;;;1.24;86.13;98070.75;432041;1271;140541;-64
2022/01/06 04:11:39;;;;;;;2.30;1.80;;;;;;;1.24;85.95;98070.92;442026;1271;142097;-66
2022/01/06 04:21:45;;;;;;;3.20;2.60;;;;;;;1.03;85.65;98077.80;446599;1271;141527;-63
2022/01/06 04:31:51;;;;;;;2.20;2.00;;;;;;;0.77;85.69;98079.40;447371;1271;140680;-64
2022/01/06 04:41:57;;;;;;;3.50;2.50;;;;;;;0.46;85.95;98086.38;447313;1270;142002;-65
2022/01/06 04:52:03;;;;;;;2.60;2.40;;;;;;;0.43;86.31;98096.63;446604;1270;141065;-64
2022/01/06 05:02:08;;;;;;;2.50;2.30;;;;;;;0.64;86.57;98109.09;439497;1271;145617;-65
2022/01/06 05:12:14;;;;;;;4.30;2.70;;;;;;;0.82;86.50;98113.96;438533;1270;198099;-63
2022/01/06 05:22:20;;;;;;;3.70;3.10;;;;;;;0.93;86.51;98118.61;430207;1271;140776;-65
2022/01/06 05:32:26;;;;;;;3.20;2.40;;;;;;;0.87;86.41;98118.21;429824;1271;141367;-65
2022/01/06 05:42:31;;;;;;;4.50;3.00;;;;;;;0.72;86.40;98124.58;438570;1270;142322;-65
2022/01/06 05:52:37;;;;;;;3.40;2.60;;;;;;;0.43;86.32;98132.45;447372;1271;141162;-64
2022/01/06 06:02:43;;;;;;;3.40;2.80;;;;;;;0.34;86.89;98163.54;447354;1269;141679;-65
2022/01/06 06:12:52;;;;;;;3.80;3.50;;;;;;;0.52;86.98;98186.61;429182;1271;142093;-64
2022/01/06 06:22:59;;;;;;;4.00;3.60;;;;;;;0.62;86.87;98204.60;436095;1270;141412;-64
2022/01/06 06:33:05;;;;;;;4.40;4.00;;;;;;;0.68;87.17;98217.97;433004;1271;140585;-65
2022/01/06 06:43:14;;;;;;;4.50;3.30;;;;;;;0.67;86.90;98238.31;442191;1271;142080;-63
2022/01/06 06:53:20;;;;;;;3.60;3.20;;;;;;;0.68;86.84;98250.35;431145;1270;141691;-63
2022/01/06 07:03:26;;;;;;;3.30;3.00;;;;;;;0.67;86.74;98262.10;443224;1270;141696;-65
2022/01/06 07:13:32;;;;;;;3.60;3.30;;;;;;;0.71;86.64;98285.52;443444;1270;142472;-63
2022/01/06 07:23:38;;;;;;;2.00;1.50;;;;;;;0.68;86.45;98304.45;433899;1271;145332;-65
2022/01/06 07:33:43;;;;;;;2.90;1.80;;;;;;;0.65;86.28;98321.79;435600;1270;147260;-64
2022/01/06 07:43:49;;;;;;;1.80;1.70;;;;;;;0.59;86.29;98337.52;435577;1271;142405;-64
2022/01/06 07:53:58;;;;;;;2.50;2.00;;;;;;;0.43;85.90;98339.09;445312;1270;143562;-64
2022/01/06 08:04:03;;;;;;;3.50;2.20;;;;;;;0.30;85.78;98346.86;446597;1271;142699;-64
2022/01/06 08:14:09;;;;;;;5.70;1.90;;;;;;;0.45;86.04;98367.41;447338;1269;142000;-64
2022/01/06 08:24:15;;;;;;;4.90;2.70;;;;;;;1.09;85.44;98374.82;446596;1270;142087;-64
2022/01/06 08:34:21;;;;;;;5.00;2.50;;;;;;;1.21;84.79;98391.16;447337;1270;142272;-65
2022/01/06 08:44:27;;;;;;;5.70;2.30;;;;;;;1.39;84.50;98395.73;441746;1270;142584;-63
2022/01/06 08:54:33;;;;;;;4.50;2.90;;;;;;;2.01;83.65;98401.84;437524;1270;141548;-65
2022/01/06 09:04:39;;;;;;;5.40;2.50;;;;;;;3.13;82.20;98414.10;439746;1271;143518;-64
2022/01/06 09:14:45;;;;;;;4.10;2.40;;;;;;;2.74;81.16;98428.35;434790;1271;140760;-64
2022/01/06 09:24:50;;;;;;;3.50;2.00;;;;;;;2.17;81.09;98433.16;446455;1270;141198;-65
2022/01/06 09:34:56;;;;;;;4.80;2.20;;;;;;;1.75;81.21;98445.33;443652;1271;142122;-64
2022/01/06 09:45:03;;;;;;;5.30;3.00;;;;;;;1.48;81.86;98452.25;440261;1271;141811;-61
2022/01/06 09:55:10;;;;;;;6.80;3.90;;;;;;;1.04;82.64;98466.23;447228;1272;141453;-64
2022/01/06 10:05:21;;;;;;;5.10;4.30;;;;;;;0.66;83.10;98479.16;447105;1271;142558;-59
2022/01/06 10:15:29;;;;;;;10.90;5.50;;;;;;;0.50;83.93;98497.71;445920;1273;144204;-60
2022/01/06 10:25:41;;;;;;;3.10;2.70;;;;;;;0.42;84.22;98504.42;447160;1272;141917;-68
2022/01/06 10:36:07;;;;;;;1.30;1.20;;;;;;;0.07;82.93;98520.02;446959;1271;142793;-61
2022/01/06 10:46:13;;;;;;;3.20;1.20;;;;;;;0.17;82.35;98549.45;447141;1270;144221;-61
2022/01/06 10:56:23;;;;;;;0.80;0.60;;;;;;;0.19;81.47;98569.33;439611;1270;140984;-61
2022/01/06 11:06:30;;;;;;;1.30;1.10;;;;;;;-0.64;81.03;98600.98;440040;1271;141609;-60
2022/01/06 11:16:35;;;;;;;1.20;0.90;;;;;;;-1.15;80.97;98627.23;447375;1270;141753;-59
2022/01/06 11:26:43;;;;;;;2.70;1.40;;;;;;;-1.29;80.43;98636.58;439967;1270;141671;-61
2022/01/06 11:36:52;;;;;;;1.80;1.10;;;;;;;-1.31;80.65;98658.27;446619;1270;144215;-60
2022/01/06 11:46:59;;;;;;;6.20;1.20;;;;;;;-1.24;79.12;98682.98;446862;1272;144512;-54
2022/01/06 11:57:06;;;;;;;2.20;1.10;;;;;;;-1.28;78.38;98706.63;447231;1270;141699;-61
2022/01/06 12:07:12;;;;;;;2.10;0.80;;;;;;;-1.09;78.47;98716.71;438751;1270;142232;-60
2022/01/06 12:17:23;;;;;;;1.40;1.00;;;;;;;-0.93;77.39;98729.12;446914;1270;140876;-62
2022/01/06 12:27:29;;;;;;;1.10;1.00;;;;;;;-1.05;77.02;98747.49;446447;1270;141626;-62
2022/01/06 12:37:35;;;;;;;1.00;0.90;;;;;;;-1.10;75.88;98760.04;447339;1270;142315;-60
2022/01/06 12:47:49;;;;;;;1.70;0.90;;;;;;;-1.04;75.10;98768.25;447200;1270;141837;-61
2022/01/06 12:57:55;;;;;;;1.40;1.00;;;;;;;-1.05;74.80;98779.80;438591;1270;142934;-57
2022/01/06 13:08:06;;;;;;;1.70;1.30;;;;;;;-1.16;73.79;98805.19;438036;1271;341458;-59
2022/01/06 13:18:12;;;;;;;2.30;0.60;;;;;;;-1.34;73.93;98824.74;446624;1271;143318;-59
2022/01/06 13:28:18;;;;;;;0.70;0.70;;;;;;;-2.44;78.28;98862.13;444595;1270;141223;-59
2022/01/06 13:38:26;;;;;;;1.10;0.70;;;;;;;-2.90;79.44;98862.45;443811;1270;142011;-59
2022/01/06 13:48:41;;;;;;;2.20;1.10;;;;;;;-2.97;79.71;98877.30;446670;1271;143323;-61
2022/01/06 13:58:48;;;;;;;1.10;0.80;;;;;;;-2.91;79.98;98911.96;443027;1271;141549;-60
2022/01/06 14:08:54;;;;;;;3.30;1.50;;;;;;;-2.78;80.12;98928.48;447253;1270;141785;-60
2022/01/06 14:19:00;;;;;;;3.40;1.70;;;;;;;-2.64;80.32;98940.23;446613;1271;141689;-60
2022/01/06 14:29:06;;;;;;;4.20;2.40;;;;;;;-2.54;80.39;98952.34;447216;1271;142696;-60
2022/01/06 14:39:12;;;;;;;2.70;2.40;;;;;;;-2.45;80.44;98963.13;446534;1270;141596;-60
2022/01/06 14:49:19;;;;;;;3.70;1.80;;;;;;;-2.38;79.91;98976.88;442518;1270;141413;-61
2022/01/06 14:59:25;;;;;;;2.20;1.20;;;;;;;-2.31;79.79;99000.73;433531;1271;142399;-61
2022/01/06 15:09:31;;;;;;;1.70;1.20;;;;;;;-2.34;79.44;99022.21;446526;1271;143120;-65
2022/01/06 15:19:36;;;;;;;2.20;1.60;;;;;;;-2.36;79.70;99057.42;447190;1271;141072;-65
2022/01/06 15:29:43;;;;;;;3.50;2.30;;;;;;;-2.28;80.06;99076.79;447047;1271;143055;-64
2022/01/06 15:39:49;;;;;;;2.90;1.80;;;;;;;-2.32;80.50;99093.50;436464;1271;196439;-65
2022/01/06 15:49:55;;;;;;;2.70;1.60;;;;;;;-2.44;80.44;99109.66;443254;1271;143089;-65
2022/01/06 16:00:07;;;;;;;3.10;2.30;;;;;;;-2.47;80.54;99123.10;435241;1271;142524;-65
2022/01/06 16:10:14;;;;;;;2.00;1.40;;;;;;;-2.60;80.87;99138.05;447037;1271;141913;-65
2022/01/06 16:20:20;;;;;;;3.00;1.90;;;;;;;-2.63;80.99;99151.66;439408;1271;143586;-66
2022/01/06 16:30:38;;;;;;;2.40;1.80;;;;;;;-2.64;81.76;99171.38;446415;1271;144090;-66
2022/01/06 16:40:45;;;;;;;3.20;1.90;;;;;;;-2.66;82.27;99186.83;447035;1271;141901;-65
2022/01/06 16:50:51;;;;;;;3.50;1.70;;;;;;;-2.60;82.28;99205.77;447348;1270;142412;-65
2022/01/06 17:00:57;;;;;;;3.80;2.50;;;;;;;-2.54;81.94;99220.91;446533;1271;143931;-67
2022/01/06 17:11:03;;;;;;;3.80;2.10;;;;;;;-2.52;81.42;99246.42;439219;1271;141784;-66
2022/01/06 17:21:09;;;;;;;3.00;1.90;;;;;;;-2.51;81.09;99269.21;445159;1270;141760;-65
2022/01/06 17:31:19;;;;;;;2.40;1.40;;;;;;;-2.52;80.57;99294.77;446906;1271;143037;-65
2022/01/06 17:41:25;;;;;;;1.40;1.20;;;;;;;-2.50;80.38;99308.10;447205;1271;145204;-66
2022/01/06 17:51:43;;;;;;;2.10;1.40;;;;;;;-2.46;79.82;99323.81;436071;1271;141833;-66
2022/01/06 18:01:49;;;;;;;3.90;2.50;;;;;;;-2.45;79.92;99336.31;447373;1270;141673;-65
2022/01/06 18:11:55;;;;;;;3.00;2.00;;;;;;;-2.44;79.54;99357.36;445486;1271;142455;-64
2022/01/06 18:22:01;;;;;;;3.00;1.80;;;;;;;-2.46;79.74;99381.24;446634;1270;142240;-64
2022/01/06 18:32:10;;;;;;;4.60;2.80;;;;;;;-2.52;79.30;99396.23;433619;1273;141810;-64
2022/01/06 18:42:16;;;;;;;2.10;1.00;;;;;;;-2.58;78.43;99420.15;444751;1270;141251;-65
2022/01/06 18:52:21;;;;;;;1.70;0.80;;;;;;;-2.66;76.72;99445.42;442185;1271;142248;-64
2022/01/06 19:02:28;;;;;;;1.10;0.70;;;;;;;-2.71;75.93;99467.09;447405;1269;142000;-64
2022/01/06 19:12:34;;;;;;;5.90;1.00;;;;;;;-2.79;75.02;99477.80;440704;1270;141616;-64
2022/01/06 19:22:39;;;;;;;1.40;1.30;;;;;;;-2.89;74.91;99491.10;447128;1270;141572;-65
2022/01/06 19:32:46;;;;;;;2.50;1.20;;;;;;;-2.98;75.10;99503.01;447397;1268;141736;-64
2022/01/06 19:42:52;;;;;;;2.70;1.70;;;;;;;-3.00;75.57;99519.46;446370;1271;142132;-65
2022/01/06 19:52:59;;;;;;;3.50;2.30;;;;;;;-3.22;76.12;99528.41;446910;1271;142361;-64
2022/01/06 20:03:06;;;;;;;3.60;1.80;;;;;;;-3.60;76.87;99546.16;446692;1273;142431;-64
2022/01/06 20:13:12;;;;;;;4.60;2.40;;;;;;;-3.91;77.35;99564.13;442861;1271;142691;-65
2022/01/06 20:23:19;;;;;;;3.80;2.40;;;;;;;-4.13;77.88;99569.02;435297;1270;141538;-63
2022/01/06 20:33:25;;;;;;;4.60;2.00;;;;;;;-4.24;78.15;99578.98;445369;1270;143732;-64
2022/01/06 20:43:31;;;;;;;4.80;2.30;;;;;;;-4.36;78.23;99592.17;447422;1270;141455;-67
2022/01/06 20:53:35;;;;;;;;;;;;;;;-4.59;78.60;99601.46;447402;1270;142307;-63
2022/01/06 21:03:41;;;;;;;4.80;2.50;;;;;;;-4.74;78.93;99612.42;443373;1270;128160;-64
2022/01/06 21:13:47;;;;;;;4.80;2.10;;;;;;;-4.89;79.15;99619.44;447045;1270;143303;-63
2022/01/06 21:23:53;;;;;;;4.30;2.70;;;;;;;-5.00;79.52;99635.31;447007;1271;142782;-64
2022/01/06 21:33:59;;;;;;;4.80;1.80;;;;;;;-5.10;79.89;99638.90;437312;1270;142978;-64
2022/01/06 21:44:05;;;;;;;9.30;3.30;;;;;;;-5.23;80.14;99650.31;447282;1270;141984;-64
2022/01/06 21:54:09;;;;;;;;;;;;;;;-5.35;80.36;99669.58;446006;1270;141271;-65
2022/01/06 22:04:16;;;;;;;7.20;4.30;;;;;;;-5.52;80.47;99684.56;445447;1270;128298;-64
2022/01/06 22:14:22;;;;;;;10.40;6.20;;;;;;;-5.73;80.78;99697.27;439037;1270;142096;-64
2022/01/06 22:24:28;;;;;;;7.90;3.70;;;;;;;-5.91;81.02;99717.14;436478;1270;141752;-63
2022/01/06 22:34:34;;;;;;;7.70;3.30;;;;;;;-6.05;81.45;99727.82;447365;1270;141679;-65
2022/01/06 22:44:40;;;;;;;7.10;3.40;;;;;;;-6.06;81.71;99740.96;443394;1270;141587;-64
2022/01/06 22:54:47;;;;;;;5.00;3.20;;;;;;;-6.09;81.88;99742.98;446409;1270;141653;-65
2022/01/06 23:04:54;;;;;;;8.40;3.60;;;;;;;-6.16;82.04;99745.67;431886;1271;141257;-65
2022/01/06 23:15:00;;;;;;;5.90;3.40;;;;;;;-6.22;82.37;99754.98;447252;1270;141422;-64
2022/01/06 23:25:07;;;;;;;6.10;4.00;;;;;;;-6.27;82.44;99766.88;446674;1270;143323;-65
2022/01/06 23:35:15;;;;;;;6.20;3.90;;;;;;;-6.37;82.54;99777.88;447405;1270;141941;-65
2022/01/06 23:45:21;;;;;;;6.90;4.20;;;;;;;-6.46;82.82;99782.08;440842;1270;142104;-66
2022/01/06 23:55:27;;;;;;;9.70;5.60;;;;;;;-6.58;82.77;99775.84;440454;1271;142205;-64
